Vivian, South Dakota
Current Conditions -  °F | °C
As of 1:53 PM on Friday 19 Dec 2014 (Local Time) from KPIR Reporting Station
Scattered Clouds Scattered Clouds  
Wind Chill: 23°   Ceiling: Unl
Heat Index: 28°   Visibility: 10mi
Dew Point: 24°   Wind: 5mph
Humidity: 85%   Direction: 140°SE
Pressure: 29.96"   Gusts: NA
Location:  43.93°N, 100.29°W
Report Text: KPIR 191953Z AUTO 14004KT 10SM SCT100 M02/M04 A2996 RMK AO2 SLP171 T10221044
Loading
Personal Weather Stations






























Interactive Weather Map New forecast layout! Learn more

10-Day Weather Forecast

Advertisements
Track Severe Weather on mobile